createdAt,value
2022-09-07T00:01:16.543Z,0.80
2022-09-07T00:03:43.693Z,1.00
2022-09-07T00:06:11.611Z,0.70
2022-09-07T00:08:39.132Z,0.70
2022-09-07T00:11:07.928Z,1.20
2022-09-07T00:13:36.127Z,0.80
2022-09-07T00:16:09.609Z,1.00
2022-09-07T00:18:36.670Z,0.90
2022-09-07T00:21:08.851Z,1.00
2022-09-07T00:23:36.821Z,1.00
2022-09-07T00:26:08.690Z,0.90
2022-09-07T00:28:36.865Z,0.80
2022-09-07T00:31:05.479Z,0.80
2022-09-07T00:33:32.402Z,0.90
2022-09-07T00:35:59.483Z,0.90
2022-09-07T00:38:26.553Z,0.80
2022-09-07T00:40:53.575Z,0.70
2022-09-07T00:43:41.414Z,0.90
2022-09-07T00:46:13.450Z,0.80
2022-09-07T00:48:46.894Z,0.90
2022-09-07T00:51:17.465Z,1.30
2022-09-07T00:56:15.933Z,0.90
2022-09-07T00:58:43.019Z,1.10
2022-09-07T01:01:10.452Z,0.80
2022-09-07T01:03:41.347Z,1.00
2022-09-07T01:06:20.324Z,1.00
2022-09-07T01:08:48.501Z,1.00
2022-09-07T01:11:15.568Z,0.90
2022-09-07T01:13:43.527Z,0.80
2022-09-07T01:16:36.798Z,0.80
2022-09-07T01:19:06.823Z,0.90
2022-09-07T01:21:52.726Z,1.00
2022-09-07T01:24:22.657Z,0.90
2022-09-07T01:27:21.849Z,1.30
2022-09-07T01:30:01.298Z,1.10
2022-09-07T01:32:50.371Z,1.10
2022-09-07T01:35:54.392Z,0.60
2022-09-07T01:38:44.594Z,0.70
2022-09-07T01:41:22.908Z,1.10
2022-09-07T01:44:01.228Z,0.90
2022-09-07T01:46:29.843Z,0.90
2022-09-07T01:49:36.442Z,1.10
2022-09-07T01:52:14.525Z,0.90
2022-09-07T01:54:47.018Z,0.80
2022-09-07T01:57:21.619Z,1.00
2022-09-07T01:59:52.483Z,1.00
2022-09-07T02:02:21.765Z,1.00
2022-09-07T02:05:05.325Z,1.30
2022-09-07T02:07:46.720Z,1.00
2022-09-07T02:10:20.468Z,1.30
2022-09-07T02:13:07.256Z,0.90
2022-09-07T02:15:45.298Z,1.30
2022-09-07T02:18:14.314Z,1.20
2022-09-07T02:20:45.131Z,1.00
2022-09-07T02:23:15.111Z,1.00
2022-09-07T02:25:55.246Z,1.20
2022-09-07T02:28:30.126Z,1.00
2022-09-07T02:30:57.344Z,1.20
2022-09-07T02:33:24.324Z,1.10
2022-09-07T02:35:51.380Z,1.10
2022-09-07T02:38:18.642Z,1.10
2022-09-07T02:40:56.546Z,1.10
2022-09-07T02:43:24.117Z,1.40
2022-09-07T02:45:54.193Z,1.40
2022-09-07T02:48:24.289Z,1.20
2022-09-07T02:51:20.407Z,1.40
2022-09-07T02:54:13.259Z,1.30
2022-09-07T02:57:08.160Z,1.10
2022-09-07T02:59:53.645Z,1.70
2022-09-07T03:02:35.830Z,1.20
2022-09-07T03:05:05.869Z,1.00
2022-09-07T03:07:44.066Z,1.30
2022-09-07T03:10:11.872Z,1.00
2022-09-07T03:12:46.830Z,1.20
2022-09-07T03:15:15.627Z,1.10
2022-09-07T03:17:42.552Z,2.00
2022-09-07T03:20:09.917Z,1.60
2022-09-07T03:22:36.975Z,1.60
2022-09-07T03:25:04.677Z,1.20
2022-09-07T03:27:32.488Z,1.40
2022-09-07T03:30:00.039Z,1.40
2022-09-07T03:32:32.404Z,1.60
2022-09-07T03:35:00.138Z,1.70
2022-09-07T03:37:27.353Z,1.40
2022-09-07T03:39:56.003Z,1.50
2022-09-07T03:42:23.338Z,1.10
2022-09-07T03:44:50.395Z,1.90
2022-09-07T03:47:17.763Z,1.20
2022-09-07T03:49:44.820Z,2.20
2022-09-07T03:52:12.133Z,2.70
2022-09-07T03:54:39.955Z,2.10
2022-09-07T03:57:07.106Z,2.60
2022-09-07T03:59:34.288Z,2.60
2022-09-07T04:02:01.885Z,3.20
2022-09-07T04:04:29.316Z,1.80
2022-09-07T04:06:56.373Z,2.80
2022-09-07T04:09:23.426Z,2.60
2022-09-07T04:11:50.492Z,2.80
2022-09-07T04:14:18.155Z,1.70
2022-09-07T04:16:45.795Z,1.80
2022-09-07T04:19:12.887Z,2.00
2022-09-07T04:21:40.199Z,2.40
2022-09-07T04:24:07.621Z,1.70
2022-09-07T04:26:36.619Z,3.20
2022-09-07T04:29:04.285Z,2.60
2022-09-07T04:31:32.052Z,2.30
2022-09-07T04:33:59.510Z,2.30
2022-09-07T04:36:26.763Z,2.00
2022-09-07T04:38:59.851Z,1.60
2022-09-07T04:41:27.822Z,1.80
2022-09-07T04:43:56.907Z,2.10
2022-09-07T04:46:27.991Z,2.10
2022-09-07T04:48:59.204Z,1.90
2022-09-07T04:51:28.307Z,1.50
2022-09-07T04:53:56.268Z,1.60
2022-09-07T04:56:23.726Z,1.20
2022-09-07T04:58:50.776Z,2.90
2022-09-07T05:01:19.750Z,4.10
2022-09-07T05:03:47.154Z,2.70
2022-09-07T05:06:14.796Z,5.00
2022-09-07T05:08:43.914Z,2.20
2022-09-07T05:11:11.598Z,2.00
2022-09-07T05:13:39.106Z,1.60
2022-09-07T05:16:10.595Z,1.50
2022-09-07T05:18:37.916Z,1.90
2022-09-07T05:21:16.028Z,1.80
2022-09-07T05:23:43.211Z,3.10
2022-09-07T05:26:10.671Z,1.60
2022-09-07T05:28:38.000Z,1.30
2022-09-07T05:31:17.504Z,1.40
2022-09-07T05:36:39.697Z,1.60
2022-09-07T05:39:06.596Z,2.00
2022-09-07T05:41:33.694Z,1.20
2022-09-07T05:46:47.865Z,1.50
2022-09-07T05:49:14.811Z,1.40
2022-09-07T05:51:41.777Z,1.60
2022-09-07T05:54:08.707Z,1.30
2022-09-07T05:56:36.409Z,1.90
2022-09-07T05:59:03.834Z,1.50
2022-09-07T06:01:30.953Z,1.50
2022-09-07T06:03:58.962Z,1.60
2022-09-07T06:06:26.816Z,1.00
2022-09-07T06:08:53.967Z,1.10
2022-09-07T06:11:22.279Z,1.10
2022-09-07T06:13:49.527Z,1.20
2022-09-07T06:16:18.547Z,0.90
2022-09-07T06:18:47.107Z,1.10
2022-09-07T06:21:15.632Z,1.10
2022-09-07T06:23:43.591Z,1.30
2022-09-07T06:26:10.978Z,0.90
2022-09-07T06:28:39.564Z,0.90
2022-09-07T06:31:14.810Z,0.70
2022-09-07T06:33:43.691Z,0.80
2022-09-07T06:36:15.223Z,0.80
2022-09-07T06:38:42.734Z,1.00
2022-09-07T06:44:07.557Z,0.70
2022-09-07T06:49:23.728Z,0.70
2022-09-07T06:51:50.777Z,0.80
2022-09-07T06:57:09.508Z,0.90
2022-09-07T06:59:37.250Z,0.90
2022-09-07T07:02:06.011Z,0.80
2022-09-07T07:04:39.471Z,0.60
2022-09-07T07:07:12.354Z,0.70
2022-09-07T07:09:40.248Z,1.00
2022-09-07T07:12:07.266Z,0.90
2022-09-07T07:14:38.467Z,1.10
2022-09-07T07:17:08.361Z,1.40
2022-09-07T07:19:35.812Z,0.90
2022-09-07T07:22:18.673Z,1.00
2022-09-07T07:24:49.878Z,1.10
2022-09-07T07:27:17.788Z,1.00
2022-09-07T07:29:45.625Z,0.90
2022-09-07T07:32:13.392Z,1.00
2022-09-07T07:34:40.240Z,0.80
2022-09-07T07:37:07.087Z,0.80
2022-09-07T07:42:21.199Z,1.40
2022-09-07T07:44:48.721Z,1.10
2022-09-07T07:47:15.783Z,1.10
2022-09-07T07:49:42.628Z,0.90
2022-09-07T07:54:56.292Z,1.30
2022-09-07T07:57:23.391Z,1.20
2022-09-07T07:59:52.347Z,1.30
2022-09-07T08:02:20.986Z,1.00
2022-09-07T08:04:48.087Z,0.90
2022-09-07T08:07:18.250Z,1.10
2022-09-07T08:09:47.706Z,1.10
2022-09-07T08:12:16.814Z,1.30
2022-09-07T08:14:44.159Z,1.00
2022-09-07T08:17:12.341Z,1.20
2022-09-07T08:19:39.494Z,1.30
2022-09-07T08:22:06.758Z,1.00
2022-09-07T08:24:33.708Z,1.30
2022-09-07T08:27:01.473Z,2.30
2022-09-07T08:29:33.413Z,1.20
2022-09-07T08:32:01.413Z,1.60
2022-09-07T08:34:46.801Z,1.40
2022-09-07T08:37:15.224Z,2.10
2022-09-07T08:39:42.904Z,1.30
2022-09-07T08:43:05.706Z,1.20
2022-09-07T08:45:35.219Z,1.20
2022-09-07T08:48:04.859Z,1.20
2022-09-07T08:50:34.707Z,2.10
2022-09-07T08:53:21.870Z,1.50
2022-09-07T08:55:58.549Z,1.20
2022-09-07T08:58:49.231Z,1.40
2022-09-07T09:01:37.066Z,1.50
2022-09-07T09:04:23.197Z,1.00
2022-09-07T09:07:08.933Z,1.50
2022-09-07T09:09:38.911Z,1.10
2022-09-07T09:12:32.358Z,1.50
2022-09-07T09:15:21.352Z,1.40
2022-09-07T09:17:56.804Z,1.30
2022-09-07T09:20:49.280Z,1.40
2022-09-07T09:23:18.044Z,1.50
2022-09-07T09:25:52.058Z,1.50
2022-09-07T09:28:19.423Z,1.30
2022-09-07T09:30:48.070Z,2.00
2022-09-07T09:33:28.478Z,1.30
2022-09-07T09:38:29.405Z,1.60
2022-09-07T09:40:57.532Z,1.40
2022-09-07T09:43:26.024Z,1.40
2022-09-07T09:48:42.248Z,1.90
2022-09-07T09:54:22.542Z,1.60
2022-09-07T09:56:49.907Z,1.50
2022-09-07T10:05:27.775Z,1.90
2022-09-07T10:07:57.491Z,1.30
2022-09-07T10:10:26.252Z,1.50
2022-09-07T10:12:55.233Z,1.20
2022-09-07T10:15:40.559Z,1.70
2022-09-07T10:18:18.648Z,1.30
2022-09-07T10:20:46.785Z,1.60
2022-09-07T10:23:22.357Z,1.20
2022-09-07T10:25:50.509Z,1.50
2022-09-07T10:28:18.989Z,1.30
2022-09-07T10:31:15.535Z,1.50
2022-09-07T10:36:51.621Z,1.60
2022-09-07T10:41:58.511Z,1.50
2022-09-07T10:44:32.321Z,1.50
2022-09-07T10:47:53.642Z,1.60
2022-09-07T10:50:43.632Z,2.70
2022-09-07T10:53:41.451Z,1.50
2022-09-07T10:56:18.686Z,1.90
2022-09-07T10:59:21.576Z,1.40
2022-09-07T11:01:54.220Z,1.60
2022-09-07T11:04:55.431Z,2.20
2022-09-07T11:07:45.490Z,1.50
2022-09-07T11:10:41.619Z,1.70
2022-09-07T11:13:30.476Z,1.50
2022-09-07T11:18:40.428Z,1.80
2022-09-07T11:21:13.295Z,1.70
2022-09-07T11:24:02.627Z,1.70
2022-09-07T11:26:51.068Z,1.70
2022-09-07T11:29:29.662Z,2.00
2022-09-07T11:32:03.042Z,1.70
2022-09-07T11:34:34.097Z,1.70
2022-09-07T11:37:03.808Z,1.80
2022-09-07T11:39:35.576Z,1.50
2022-09-07T11:45:20.668Z,1.50
2022-09-07T11:48:19.440Z,1.60
2022-09-07T11:50:54.620Z,1.70
2022-09-07T11:53:23.658Z,2.30
2022-09-07T11:55:55.341Z,1.90
2022-09-07T11:58:35.076Z,2.10
2022-09-07T12:01:11.137Z,2.30
2022-09-07T12:03:59.468Z,2.00
2022-09-07T12:07:00.944Z,1.80
2022-09-07T12:09:44.074Z,1.80
2022-09-07T12:12:27.816Z,1.50
2022-09-07T12:15:00.931Z,2.30
2022-09-07T12:17:34.971Z,1.80
2022-09-07T12:20:22.553Z,1.80
2022-09-07T12:23:06.716Z,1.80
2022-09-07T12:25:34.800Z,1.40
2022-09-07T12:28:03.368Z,1.70
2022-09-07T12:30:35.818Z,1.60
2022-09-07T12:35:39.876Z,1.50
2022-09-07T12:38:19.518Z,1.70
2022-09-07T12:40:59.561Z,1.90
2022-09-07T12:43:35.741Z,1.50
2022-09-07T12:46:03.880Z,1.40
2022-09-07T12:48:44.825Z,2.30
2022-09-07T12:54:19.859Z,1.70
2022-09-07T12:59:52.657Z,1.10
2022-09-07T13:02:29.258Z,1.30
2022-09-07T13:05:02.321Z,1.60
2022-09-07T13:07:53.456Z,1.30
2022-09-07T13:10:36.101Z,1.20
2022-09-07T13:13:08.035Z,1.30
2022-09-07T13:15:40.724Z,1.70
2022-09-07T13:18:29.872Z,1.40
2022-09-07T13:21:18.765Z,2.30
2022-09-07T13:27:07.513Z,1.40
2022-09-07T13:29:42.020Z,1.50
2022-09-07T13:32:11.259Z,2.40
2022-09-07T13:35:11.882Z,1.50
2022-09-07T13:37:51.628Z,1.50
2022-09-07T13:40:27.596Z,1.80
2022-09-07T13:42:55.457Z,2.00
2022-09-07T13:45:49.161Z,1.90
2022-09-07T13:48:26.823Z,2.00
2022-09-07T13:50:59.811Z,1.50
2022-09-07T13:53:45.908Z,1.60
2022-09-07T13:56:40.093Z,1.50
2022-09-07T13:59:25.676Z,1.40
2022-09-07T14:01:54.093Z,1.70
2022-09-07T14:04:28.849Z,1.60
2022-09-07T14:07:03.149Z,1.40
2022-09-07T14:09:34.022Z,1.40
2022-09-07T14:12:04.465Z,2.20
2022-09-07T14:17:00.817Z,3.00
2022-09-07T14:19:40.046Z,3.00
2022-09-07T14:22:17.983Z,1.40
2022-09-07T14:25:01.484Z,1.60
2022-09-07T14:27:39.792Z,1.80
2022-09-07T14:30:21.076Z,1.80
2022-09-07T14:35:27.075Z,1.60
2022-09-07T14:37:55.347Z,2.00
2022-09-07T14:40:24.117Z,2.50
2022-09-07T14:42:53.686Z,1.20
2022-09-07T14:45:23.853Z,2.10
2022-09-07T14:47:52.919Z,1.50
2022-09-07T14:50:35.561Z,1.40
2022-09-07T14:56:03.693Z,2.00
2022-09-07T14:58:32.312Z,2.00
2022-09-07T15:01:38.051Z,1.40
2022-09-07T15:04:17.379Z,1.70
2022-09-07T15:07:02.983Z,2.00
2022-09-07T15:09:36.948Z,1.50
2022-09-07T15:12:11.471Z,1.50
2022-09-07T15:14:38.823Z,1.70
2022-09-07T15:19:54.213Z,1.50
2022-09-07T15:22:22.411Z,1.80
2022-09-07T15:24:49.699Z,2.30
2022-09-07T15:27:21.233Z,2.00
2022-09-07T15:29:48.486Z,2.30
2022-09-07T15:32:17.990Z,1.80
2022-09-07T15:34:46.281Z,2.00
2022-09-07T15:40:01.914Z,1.60
2022-09-07T15:45:18.619Z,1.70
2022-09-07T15:47:52.748Z,1.40
2022-09-07T15:50:23.212Z,1.70
2022-09-07T15:52:51.988Z,2.00
2022-09-07T15:55:19.120Z,2.30
2022-09-07T15:57:52.749Z,2.50
2022-09-07T16:00:24.186Z,1.90
2022-09-07T16:03:07.933Z,1.90
2022-09-07T16:05:35.398Z,1.90
2022-09-07T16:10:54.469Z,1.60
2022-09-07T16:13:24.345Z,1.60
2022-09-07T16:15:52.801Z,1.60
2022-09-07T16:18:20.663Z,2.10
2022-09-07T16:20:52.249Z,1.50
2022-09-07T16:23:19.781Z,1.60
2022-09-07T16:25:57.666Z,1.40
2022-09-07T16:28:25.163Z,1.70
2022-09-07T16:30:52.612Z,1.30
2022-09-07T16:33:19.607Z,1.50
2022-09-07T16:35:59.819Z,1.40
2022-09-07T16:41:22.943Z,1.50
2022-09-07T16:43:50.166Z,1.80
2022-09-07T16:46:18.757Z,1.40
2022-09-07T16:48:45.618Z,1.30
2022-09-07T16:51:14.441Z,1.40
2022-09-07T16:53:41.443Z,1.50
2022-09-07T16:56:12.979Z,1.50
2022-09-07T16:58:42.334Z,1.50
2022-09-07T17:01:11.645Z,1.30
2022-09-07T17:03:39.510Z,1.40
2022-09-07T17:06:09.005Z,1.60
2022-09-07T17:08:36.248Z,1.70
2022-09-07T17:11:07.730Z,2.10
2022-09-07T17:13:35.373Z,1.70
2022-09-07T17:16:13.126Z,1.30
2022-09-07T17:21:30.098Z,1.50
2022-09-07T17:23:56.939Z,1.40
2022-09-07T17:26:28.054Z,1.60
2022-09-07T17:28:59.749Z,1.70
2022-09-07T17:34:20.115Z,2.10
2022-09-07T17:36:48.196Z,2.10
2022-09-07T17:39:17.633Z,1.60
2022-09-07T17:41:46.229Z,1.50
2022-09-07T17:44:13.587Z,1.60
2022-09-07T17:46:41.362Z,1.60
2022-09-07T17:49:10.375Z,1.90
2022-09-07T17:51:37.312Z,1.50
2022-09-07T17:54:09.945Z,2.20
2022-09-07T17:56:38.680Z,2.50
2022-09-07T18:01:56.060Z,2.50
2022-09-07T18:04:24.198Z,4.10
2022-09-07T18:06:51.695Z,4.30
2022-09-07T18:09:19.913Z,5.40
2022-09-07T18:11:49.095Z,4.90
2022-09-07T18:14:18.245Z,5.30
2022-09-07T18:16:49.400Z,3.90
2022-09-07T18:19:18.394Z,3.20
2022-09-07T18:21:46.508Z,2.90
2022-09-07T18:24:17.225Z,2.00
2022-09-07T18:26:50.161Z,1.90
2022-09-07T18:29:28.681Z,2.00
2022-09-07T18:31:57.242Z,2.30
2022-09-07T18:34:25.438Z,2.10
2022-09-07T18:36:52.808Z,1.50
2022-09-07T18:39:19.608Z,1.70
2022-09-07T18:41:46.606Z,2.20
2022-09-07T18:47:01.391Z,1.60
2022-09-07T18:49:28.749Z,1.80
2022-09-07T18:54:42.610Z,2.00
2022-09-07T18:57:09.968Z,2.10
2022-09-07T18:59:37.021Z,1.90
2022-09-07T19:02:06.238Z,1.90
2022-09-07T19:07:25.005Z,1.90
2022-09-07T19:09:55.843Z,1.90
2022-09-07T19:12:24.579Z,1.80
2022-09-07T19:14:51.815Z,1.80
2022-09-07T19:17:19.466Z,2.10
2022-09-07T19:19:46.410Z,1.70
2022-09-07T19:22:13.310Z,1.70
2022-09-07T19:24:40.313Z,2.00
2022-09-07T19:27:07.365Z,2.30
2022-09-07T19:29:34.214Z,2.30
2022-09-07T19:32:07.839Z,1.60
2022-09-07T19:34:38.969Z,1.50
2022-09-07T19:37:06.752Z,1.70
2022-09-07T19:39:33.735Z,2.00
2022-09-07T19:42:00.858Z,1.70
2022-09-07T19:44:28.075Z,1.80
2022-09-07T19:46:55.419Z,1.60
2022-09-07T19:49:23.186Z,1.70
2022-09-07T19:51:52.217Z,2.10
2022-09-07T19:54:19.122Z,1.80
2022-09-07T19:56:46.112Z,1.70
2022-09-07T19:59:13.332Z,2.00
2022-09-07T20:01:43.988Z,1.80
2022-09-07T20:04:14.766Z,2.50
2022-09-07T20:06:44.421Z,1.60
2022-09-07T20:09:11.526Z,1.60
2022-09-07T20:11:40.825Z,1.70
2022-09-07T20:14:09.794Z,1.80
2022-09-07T20:16:38.639Z,1.60
2022-09-07T20:19:07.392Z,1.60
2022-09-07T20:21:34.344Z,1.60
2022-09-07T20:24:01.499Z,1.60
2022-09-07T20:26:30.503Z,1.40
2022-09-07T20:29:23.289Z,1.50
2022-09-07T20:31:47.261Z,1.50
2022-09-07T20:34:14.449Z,1.40
2022-09-07T20:36:41.202Z,1.60
2022-09-07T20:39:08.497Z,1.60
2022-09-07T20:41:35.391Z,1.40
2022-09-07T20:44:03.507Z,1.70
2022-09-07T20:46:30.871Z,1.60
2022-09-07T20:48:57.957Z,1.40
2022-09-07T20:51:24.708Z,1.20
2022-09-07T20:53:51.559Z,1.60
2022-09-07T20:56:20.526Z,1.50
2022-09-07T20:58:47.685Z,1.60
2022-09-07T21:01:17.904Z,1.70
2022-09-07T21:03:49.024Z,1.30
2022-09-07T21:06:16.342Z,1.60
2022-09-07T21:08:44.134Z,1.40
2022-09-07T21:11:12.689Z,1.60
2022-09-07T21:13:39.693Z,1.70
2022-09-07T21:16:09.089Z,1.70
2022-09-07T21:18:37.489Z,1.70
2022-09-07T21:21:21.426Z,1.60
2022-09-07T21:23:48.663Z,1.70
2022-09-07T21:26:15.545Z,1.70
2022-09-07T21:28:42.490Z,1.80
2022-09-07T21:31:09.537Z,1.70
2022-09-07T21:33:37.417Z,1.90
2022-09-07T21:36:09.447Z,1.70
2022-09-07T21:38:36.755Z,1.90
2022-09-07T21:41:11.154Z,1.80
2022-09-07T21:43:38.030Z,1.70
2022-09-07T21:46:08.982Z,1.40
2022-09-07T21:48:36.037Z,1.60
2022-09-07T21:51:03.093Z,1.60
2022-09-07T21:53:30.348Z,1.50
2022-09-07T21:55:58.571Z,2.00
2022-09-07T21:58:26.374Z,1.40
2022-09-07T22:00:54.006Z,1.50
2022-09-07T22:03:21.833Z,1.60
2022-09-07T22:05:48.679Z,1.70
2022-09-07T22:08:16.043Z,1.60
2022-09-07T22:10:44.117Z,1.60
2022-09-07T22:13:11.584Z,1.30
2022-09-07T22:15:39.911Z,1.60
2022-09-07T22:18:11.936Z,1.60
2022-09-07T22:20:39.204Z,1.70
2022-09-07T22:23:06.147Z,1.70
2022-09-07T22:25:33.511Z,1.40
2022-09-07T22:28:00.359Z,1.50
2022-09-07T22:30:27.408Z,1.60
2022-09-07T22:32:54.253Z,1.90
2022-09-07T22:35:21.615Z,1.50
2022-09-07T22:37:48.472Z,1.60
2022-09-07T22:40:15.582Z,1.80
2022-09-07T22:42:42.487Z,1.90
2022-09-07T22:45:10.254Z,1.40
2022-09-07T22:47:37.104Z,1.70
2022-09-07T22:50:04.358Z,1.30
2022-09-07T22:52:31.210Z,1.60
2022-09-07T22:54:58.063Z,1.70
2022-09-07T22:57:24.913Z,2.80
2022-09-07T22:59:51.858Z,1.30
2022-09-07T23:02:18.804Z,1.80
2022-09-07T23:04:45.754Z,1.60
2022-09-07T23:07:12.812Z,1.60
2022-09-07T23:09:39.614Z,1.50
2022-09-07T23:12:06.813Z,1.90
2022-09-07T23:14:33.869Z,1.60
2022-09-07T23:17:00.723Z,1.90
2022-09-07T23:19:27.977Z,1.40
2022-09-07T23:21:55.335Z,1.70
2022-09-07T23:24:22.182Z,1.80
2022-09-07T23:26:49.139Z,1.70
2022-09-07T23:29:15.997Z,1.80
2022-09-07T23:31:43.071Z,1.70
2022-09-07T23:34:10.193Z,1.60
2022-09-07T23:36:37.150Z,1.70
2022-09-07T23:39:04.300Z,1.90
2022-09-07T23:41:31.149Z,1.50
2022-09-07T23:43:58.095Z,2.00
2022-09-07T23:46:24.977Z,1.70
2022-09-07T23:48:51.896Z,1.70
2022-09-07T23:51:23.563Z,2.00
2022-09-07T23:53:51.111Z,1.80
2022-09-07T23:56:18.060Z,1.80
2022-09-07T23:58:45.212Z,2.20
